• Join FlightAware (Why Join?)
  • Login
  • US Flag 
02:02AM EST


 

Airport Tracker/Info


-or-


 

Live Flight TrackerFlight Track Log ✈ N4426 ✈ 26-Jul-2014 ✈ KIAG - MYNN / NAS

Flight Track Log - Related Links

Times and Time Zones

All times are in EDT time to prevent confusion due to time zone crossing. See the N4426 flight status page for this flight to view local times or setup timezone preferences in your user account.

Time Position Orientation Groundspeed Altitude Reporting Facility
EDT Latitude Longitude Course Direction KTS MPH feet Rate Location/Type
03:14PM 43.1167 -78.9667 303° West 163 188 900  Level Buffalo TRACON
03:15PM 43.1453 -79.0269 303° West 226 260 2,400 2,100 Climbing Cleveland Center
03:16PM 43.1506 -78.9119 86° East 270 311 5,700 2,820 Climbing Cleveland Center
03:17PM 43.0706 -78.8831 165° South 283 326 8,300 2,220 Climbing Cleveland Center
03:18PM 42.9942 -78.8967 187° South 286 329 10,400 2,040 Climbing Cleveland Center
03:19PM 42.9058 -78.9119 187° South 317 365 12,600 1,980 Climbing Cleveland Center
03:20PM 42.8136 -78.9283 187° South 334 384 14,600 1,980 Climbing Cleveland Center
03:21PM 42.7167 -78.9450 187° South 349 402 16,700 2,160 Climbing Cleveland Center
03:22PM 42.5992 -78.9658 187° South 354 407 19,100 2,040 Climbing Cleveland Center
03:23PM 42.4981 -78.9836 187° South 363 418 20,900 1,620 Climbing Cleveland Center
03:24PM 42.3850 -79.0025 187° South 372 428 22,500 1,380 Climbing Cleveland Center
03:25PM 42.2789 -79.0208 187° South 383 441 23,800 1,200 Climbing Cleveland Center
03:26PM 42.1706 -79.0406 188° South 394 453 25,000 1,140 Climbing Cleveland Center
03:27PM 42.0608 -79.0597 187° South 398 458 26,200 960 Climbing Cleveland Center
03:28PM 41.9497 -79.0797 188° South 402 463 27,000 360 Climbing Cleveland Center
03:29PM 41.8167 -79.1003 187° South 431 496 27,000  Level Cleveland Center
03:30PM 41.6956 -79.1219 188° South 441 507 27,000  Level Cleveland Center
03:31PM 41.5611 -79.1464 188° South 456 525 27,000  Level Cleveland Center
03:32PM 41.4342 -79.1689 188° South 460 529 27,000  Level Cleveland Center
03:33PM 41.3050 -79.1906 187° South 468 539 27,000  Level Cleveland Center
03:34PM 41.1506 -79.2175 187° South 472 543 27,000  Level Cleveland Center
03:35PM 41.0372 -79.2367 187° South 472 543 27,000  Level Cleveland Center
03:37PM 40.9069 -79.2581 187° South 472 543 27,000  Level Cleveland Center
03:38PM 40.7517 -79.2836 187° South 471 542 27,000  Level Cleveland Center
03:39PM 40.6197 -79.3056 187° South 471 542 27,000  Level Cleveland Center
03:40PM 40.4881 -79.3275 187° South 473 544 27,000  Level Cleveland Center
03:41PM 40.3544 -79.3492 187° South 476 548 27,000  Level Cleveland Center
03:42PM 40.2219 -79.3708 187° South 477 549 27,000  Level Cleveland Center
03:43PM 40.0858 -79.3928 187° South 478 550 27,000  Level Cleveland Center
03:44PM 39.9536 -79.4156 188° South 482 555 27,000  Level Cleveland Center
03:45PM 39.7950 -79.4422 187° South 482 555 27,000  Level Cleveland Center
03:46PM 39.6647 -79.4597 186° South 474 545 27,000  Level Cleveland Center
03:47PM 39.5331 -79.4814 187° South 474 545 27,000  Level Cleveland Center
03:48PM 39.4014 -79.5011 187° South 474 545 27,000  Level Cleveland Center
03:49PM 39.2717 -79.5222 187° South 474 545 27,000  Level Cleveland Center
03:50PM 39.1406 -79.5444 187° South 473 544 27,000  Level Cleveland Center
03:51PM 39.0100 -79.5647 187° South 473 544 27,000  Level Cleveland Center
03:52PM 38.8817 -79.5875 188° South 473 544 27,000  Level Cleveland Center
03:53PM 38.7261 -79.6117 187° South 473 544 27,000  Level Cleveland Center
03:54PM 38.5969 -79.6339 188° South 472 543 27,000 360 Level Cleveland Center
03:55PM 38.4656 -79.6517 186° South 472 543 27,800 480 Climbing Cleveland Center
03:56PM 38.3406 -79.6722 187° South 458 527 28,000 60 Climbing Cleveland Center
03:57PM 38.2092 -79.6925 187° South 459 528 28,000  Level Cleveland Center
03:59PM 38.0150 -79.7225 187° South 468 539 28,000  Level Washington Center
04:00PM 37.8839 -79.7439 187° South 471 542 28,000  Level Washington Center
04:01PM 37.7533 -79.7639 187° South 475 547 28,000  Level Washington Center
04:02PM 37.6103 -79.7856 187° South 476 548 28,000  Level Washington Center
04:03PM 37.4781 -79.8053 187° South 476 548 28,000  Level Washington Center
04:04PM 37.3364 -79.8283 187° South 479 551 28,000  Level Washington Center
04:05PM 37.2078 -79.8481 187° South 471 542 28,000  Level Washington Center
04:06PM 37.0517 -79.8714 187° South 470 541 28,000  Level Washington Center
04:07PM 36.9239 -79.8908 187° South 467 537 28,000  Level Washington Center
04:08PM 36.7958 -79.9097 187° South 466 536 28,000  Level Washington Center
04:09PM 36.6667 -79.9292 187° South 465 535 28,000  Level Washington Center
04:10PM 36.5389 -79.9483 187° South 465 535 28,000  Level Washington Center
04:11PM 36.3839 -79.9706 187° South 466 536 28,000  Level Washington Center
04:12PM 36.2561 -79.9861 186° South 470 541 28,000  Level Atlanta Center
04:13PM 36.1275 -80.0053 187° South 470 541 28,000  Level Atlanta Center
04:14PM 35.9969 -80.0247 187° South 470 541 28,000  Level Atlanta Center
04:15PM 35.8681 -80.0386 185° South 470 541 28,000  Level Atlanta Center
04:16PM 35.7478 -80.0625 189° South 463 533 28,000  Level Atlanta Center
04:17PM 35.6233 -80.0839 188° South 457 526 28,000  Level Atlanta Center
04:18PM 35.4986 -80.1003 186° South 457 526 28,000  Level Atlanta Center
04:19PM 35.3781 -80.1186 187° South 457 526 28,000  Level Atlanta Center
04:20PM 35.2536 -80.1347 186° South 452 520 28,000  Level Atlanta Center
04:21PM 35.1311 -80.1558 188° South 445 512 28,000  Level Atlanta Center
04:22PM 35.0064 -80.1717 186° South 445 512 28,000  Level Atlanta Center
04:24PM 34.7094 -80.2181 187° South 448 516 28,000  Level Jacksonville Center
04:25PM 34.5783 -80.2322 185° South 453 521 28,000  Level Jacksonville Center
04:26PM 34.4472 -80.2514 187° South 465 535 28,000  Level Jacksonville Center
04:27PM 34.3183 -80.2728 188° South 470 541 28,000  Level Jacksonville Center
04:28PM 34.1872 -80.2894 186° South 476 548 28,000  Level Jacksonville Center
04:29PM 34.0583 -80.3133 189° South 476 548 28,000  Level Jacksonville Center
04:30PM 33.9294 -80.3422 191° South 481 554 28,000  Level Jacksonville Center
04:31PM 33.8047 -80.3658 189° South 481 554 28,000  Level Jacksonville Center
04:32PM 33.6781 -80.3894 189° South 470 541 28,000  Level Jacksonville Center
04:33PM 33.5553 -80.4153 190° South 463 533 28,000  Level Jacksonville Center
04:34PM 33.4306 -80.4386 189° South 458 527 28,000  Level Jacksonville Center
04:35PM 33.3039 -80.4619 189° South 458 527 28,000  Level Jacksonville Center
04:36PM 33.1914 -80.4825 189° South 463 533 28,000  Level Jacksonville Center
04:37PM 33.0544 -80.5133 191° South 463 533 28,000  Level Jacksonville Center
04:38PM 32.9400 -80.5311 187° South 468 539 28,000  Level Jacksonville Center
04:39PM 32.8131 -80.5544 189° South 463 533 28,000  Level Jacksonville Center
04:40PM 32.6881 -80.5797 190° South 463 533 28,000  Level Jacksonville Center
04:41PM 32.5611 -80.5953 186° South 463 533 28,000  Level Jacksonville Center
04:42PM 32.4375 -80.5714 171° South 457 526 28,000  Level Jacksonville Center
04:43PM 32.3197 -80.5153 158° South 451 519 28,000  Level Jacksonville Center
04:44PM 32.1994 -80.4572 158° South 458 527 28,000  Level Jacksonville Center
04:45PM 32.0836 -80.3989 157° South 464 534 28,000  Level Jacksonville Center
04:46PM 31.9656 -80.3408 157° South 464 534 28,000  Level Jacksonville Center
04:47PM 31.8475 -80.2856 158° South 458 527 28,000  Level Jacksonville Center
04:48PM 31.7250 -80.2253 157° South 458 527 28,000  Level Jacksonville Center
04:49PM 31.6050 -80.1678 158° South 458 527 28,000  Level Jacksonville Center
04:50PM 31.4847 -80.1131 159° South 463 533 28,000  Level Jacksonville Center
04:51PM 31.3644 -80.0533 157° South 463 533 28,000  Level Jacksonville Center
04:52PM 31.2419 -79.9939 157° South 468 539 28,000  Level Jacksonville Center
04:53PM 31.1194 -79.9369 158° South 468 539 28,000  Level Jacksonville Center
04:54PM 30.9992 -79.8800 158° South 468 539 28,000  Level Jacksonville Center
04:55PM 30.8789 -79.8211 157° South 473 544 28,000  Level Jacksonville Center
04:56PM 30.7606 -79.7644 158° South 467 537 28,000  Level Jacksonville Center
04:58PM 30.5472 -79.6633 158° South 465 535 28,000  Level Miami Center
04:59PM 30.4269 -79.6075 158° South 465 535 28,000  Level Miami Center
05:00PM 30.3058 -79.5511 158° South 465 535 28,000  Level Miami Center
05:01PM 30.1875 -79.4958 158° South 465 535 28,000  Level Miami Center
05:02PM 30.0467 -79.4300 158° South 459 528 28,000  Level Miami Center
05:03PM 29.9272 -79.3744 158° South 458 527 28,000  Level Miami Center
05:04PM 29.8097 -79.3183 157° South 458 527 28,000  Level Miami Center
05:05PM 29.6928 -79.2642 158° South 456 525 28,000  Level Miami Center
05:06PM 29.5744 -79.2097 158° South 455 524 28,000  Level Miami Center
05:07PM 29.4553 -79.1536 158° South 456 525 28,000  Level Miami Center
05:08PM 29.3369 -79.1003 159° South 457 526 28,000  Level Miami Center
05:10PM 29.1958 -79.0358 158° South 457 526 28,000  Level Miami Center
05:11PM 29.0778 -78.9817 158° South 457 526 28,000  Level Miami Center
05:12PM 28.9592 -78.9281 158° South 457 526 28,000  Level Miami Center
05:13PM 28.8414 -78.8744 158° South 457 526 28,000  Level Miami Center
05:14PM 28.7228 -78.8206 158° South 457 526 28,000  Level Miami Center
05:15PM 28.6053 -78.7675 158° South 457 526 28,000  Level Miami Center
05:16PM 28.4614 -78.7028 158° South 459 528 28,000  Level Miami Center
05:17PM 28.3431 -78.6492 158° South 459 528 28,000  Level Miami Center
05:18PM 28.2236 -78.5956 158° South 459 528 28,000 -300 Level Miami Center
05:19PM 28.1111 -78.5453 158° South 458 527 27,500 -840 Descending Miami Center
05:20PM 27.9939 -78.4928 158° South 452 520 26,300 -1,500 Descending Miami Center
05:21PM 27.8575 -78.4311 158° South 441 507 24,500 -1,140 Descending Miami Center
05:22PM 27.7472 -78.3825 159° South 429 494 24,000 -300 Descending Miami Center
05:23PM 27.6350 -78.3325 158° South 429 494 24,000  Level Miami Center
05:24PM 27.5189 -78.2875 161° South 435 501 24,000 -180 Level Miami Center
05:25PM 27.4025 -78.2406 160° South 439 505 23,700 -1,020 Descending Miami Center
05:26PM 27.2886 -78.1869 157° South 441 507 21,900 -1,980 Descending Miami Center
05:27PM 27.1794 -78.1389 159° South 420 483 19,700 -2,040 Descending Miami Center
05:28PM 27.0567 -78.0775 156° South 402 463 17,700 -1,800 Descending Miami Center
05:29PM 26.9544 -78.0350 160° South 390 449 16,000 -1,680 Descending Miami Center
05:30PM 26.8558 -77.9919 159° South 381 438 14,300 -1,320 Descending Miami Center
05:31PM 26.7622 -77.9506 158° South 362 417 13,300 -720 Descending Miami Center
05:32PM 26.6703 -77.9119 159° South 355 409 12,900 -240 Descending Miami Center
05:33PM 26.5783 -77.8717 159° South 353 406 12,900  Level Miami Center
05:34PM 26.4858 -77.8314 159° South 353 406 12,900  Level Miami Center
05:35PM 26.3933 -77.7911 159° South 353 406 12,900  Level Miami Center
05:36PM 26.2819 -77.7425 159° South 354 407 12,900  Level Miami Center
05:37PM 26.1889 -77.7033 159° South 354 407 12,900  Level Miami Center
05:38PM 26.0956 -77.6647 160° South 355 409 12,900  Level Miami Center
05:39PM 26.0036 -77.6239 158° South 355 409 13,000  Climbing Miami Center
05:40PM 25.9119 -77.5833 158° South 354 407 13,000  Level Miami Center
05:42PM 25.8197 -77.5453 160° South 354 407 13,000 -180 Level Miami Center
05:43PM 25.7103 -77.5506 182° South 352 405 12,700 -780 Descending Miami Center
05:44PM 25.6161 -77.5628 187° South 344 396 11,400 -1,260 Descending Miami Center
05:46PM 25.3888 -77.5246 175° South  Level Estimated
05:53PM 25.0390 -77.4662 318° Northwest  Level Estimated
05:54PM 25.0390 -77.4662 318° Northwest  Level Estimated
05:55PM 25.0390 -77.4662 318° Northwest  Level Estimated
05:56PM 25.0390 -77.4662 318° Northwest  Level Estimated
05:57PM 25.0390 -77.4662 318° Northwest  Level Estimated
05:58PM 25.0390 -77.4662 318° Northwest  Level Estimated
05:59PM 25.0390 -77.4662 318° Northwest  Level Estimated
06:00PM 25.0390 -77.4662 318° Northwest  Level Estimated
06:01PM 25.0390 -77.4662 318° Northwest  Level Estimated
06:02PM 25.0390 -77.4662 318° Northwest  Level Estimated
06:03PM 25.0390 -77.4662 318° Northwest  Level Estimated
06:04PM 25.0390 -77.4662 318° Northwest  Level Estimated
06:05PM 25.0390 -77.4662 318° Northwest  Level Estimated
06:06PM 25.0390 -77.4662 318° Northwest  Level Estimated
06:07PM 25.0390 -77.4662 318° Northwest  Level Estimated